createdAt,value
2022-09-15T00:01:04.986Z,94.63
2022-09-15T00:03:32.377Z,94.33
2022-09-15T00:05:59.830Z,95.52
2022-09-15T00:08:27.450Z,97.71
2022-09-15T00:11:05.996Z,96.61
2022-09-15T00:13:34.868Z,96.53
2022-09-15T00:16:02.661Z,96.43
2022-09-15T00:18:30.533Z,96.32
2022-09-15T00:20:57.663Z,96.89
2022-09-15T00:23:25.149Z,98.52
2022-09-15T00:25:53.664Z,98.06
2022-09-15T00:28:22.733Z,98.97
2022-09-15T00:30:52.445Z,100.00
2022-09-15T00:33:22.461Z,99.59
2022-09-15T00:35:51.268Z,98.76
2022-09-15T00:38:19.461Z,98.50
2022-09-15T00:40:48.941Z,98.33
2022-09-15T00:43:18.143Z,98.89
2022-09-15T00:45:45.639Z,98.07
2022-09-15T00:48:16.477Z,98.08
2022-09-15T00:50:49.964Z,98.61
2022-09-15T00:53:17.903Z,98.17
2022-09-15T00:55:48.774Z,98.48
2022-09-15T00:58:23.028Z,98.13
2022-09-15T01:01:00.610Z,97.98
2022-09-15T01:03:30.552Z,97.77
2022-09-15T01:06:16.108Z,97.64
2022-09-15T01:08:50.142Z,98.42
2022-09-15T01:11:17.679Z,100.00
2022-09-15T01:13:44.790Z,99.37
2022-09-15T01:16:24.338Z,99.24
2022-09-15T01:18:57.166Z,100.00
2022-09-15T01:21:40.834Z,100.00
2022-09-15T01:24:34.701Z,100.00
2022-09-15T01:27:30.937Z,100.00
2022-09-15T01:30:24.508Z,99.62
2022-09-15T01:33:06.652Z,99.55
2022-09-15T01:35:58.179Z,99.66
2022-09-15T01:39:09.680Z,100.00
2022-09-15T01:41:59.300Z,100.00
2022-09-15T01:44:29.162Z,100.00
2022-09-15T01:47:00.026Z,100.00
2022-09-15T01:49:36.230Z,100.00
2022-09-15T01:52:03.776Z,100.00
2022-09-15T01:54:36.144Z,100.00
2022-09-15T01:57:03.603Z,100.00
2022-09-15T01:59:30.824Z,100.00
2022-09-15T02:02:01.977Z,100.00
2022-09-15T02:04:29.713Z,100.00
2022-09-15T02:07:06.409Z,100.00
2022-09-15T02:09:49.358Z,100.00
2022-09-15T02:12:39.794Z,100.00
2022-09-15T02:15:10.989Z,100.00
2022-09-15T02:17:43.573Z,100.00
2022-09-15T02:20:15.627Z,100.00
2022-09-15T02:22:47.790Z,100.00
2022-09-15T02:25:18.788Z,100.00
2022-09-15T02:27:55.044Z,100.00
2022-09-15T02:30:22.321Z,100.00
2022-09-15T02:32:54.138Z,100.00
2022-09-15T02:35:21.462Z,100.00
2022-09-15T02:37:49.035Z,100.00
2022-09-15T02:40:16.424Z,100.00
2022-09-15T02:42:53.429Z,100.00
2022-09-15T02:45:20.757Z,100.00
2022-09-15T02:47:48.093Z,100.00
2022-09-15T02:50:15.186Z,100.00
2022-09-15T02:52:42.610Z,100.00
2022-09-15T02:55:10.755Z,100.00
2022-09-15T02:57:38.289Z,100.00
2022-09-15T03:00:12.984Z,100.00
2022-09-15T03:02:50.232Z,100.00
2022-09-15T03:05:19.915Z,100.00
2022-09-15T03:07:47.757Z,100.00
2022-09-15T03:10:15.042Z,100.00
2022-09-15T03:12:44.566Z,100.00
2022-09-15T03:15:13.562Z,100.00
2022-09-15T03:17:42.080Z,100.00
2022-09-15T03:20:11.390Z,100.00
2022-09-15T03:22:38.688Z,100.00
2022-09-15T03:25:07.354Z,100.00
2022-09-15T03:27:35.474Z,100.00
2022-09-15T03:30:04.285Z,100.00
2022-09-15T03:32:33.199Z,100.00
2022-09-15T03:35:00.273Z,100.00
2022-09-15T03:37:27.809Z,100.00
2022-09-15T03:39:56.051Z,100.00
2022-09-15T03:42:23.163Z,100.00
2022-09-15T03:44:50.346Z,100.00
2022-09-15T03:47:17.485Z,100.00
2022-09-15T03:49:44.642Z,100.00
2022-09-15T03:52:12.261Z,100.00
2022-09-15T03:54:40.100Z,100.00
2022-09-15T03:57:07.074Z,100.00
2022-09-15T03:59:34.218Z,100.00
2022-09-15T04:02:01.537Z,100.00
2022-09-15T04:04:28.984Z,100.00
2022-09-15T04:06:56.143Z,100.00
2022-09-15T04:09:24.690Z,100.00
2022-09-15T04:11:51.902Z,100.00
2022-09-15T04:14:19.636Z,100.00
2022-09-15T04:16:46.729Z,100.00
2022-09-15T04:19:14.396Z,100.00
2022-09-15T04:21:42.284Z,100.00
2022-09-15T04:24:09.656Z,100.00
2022-09-15T04:26:37.202Z,100.00
2022-09-15T04:29:06.210Z,100.00
2022-09-15T04:31:34.522Z,100.00
2022-09-15T04:34:01.690Z,100.00
2022-09-15T04:36:29.437Z,100.00
2022-09-15T04:38:56.932Z,100.00
2022-09-15T04:41:25.700Z,100.00
2022-09-15T04:43:53.188Z,100.00
2022-09-15T04:46:20.856Z,100.00
2022-09-15T04:48:48.854Z,100.00
2022-09-15T04:51:19.363Z,100.00
2022-09-15T04:53:47.096Z,100.00
2022-09-15T04:56:23.382Z,100.00
2022-09-15T04:58:58.349Z,100.00
2022-09-15T05:01:32.205Z,100.00
2022-09-15T05:04:01.493Z,100.00
2022-09-15T05:06:29.196Z,100.00
2022-09-15T05:08:57.619Z,100.00
2022-09-15T05:11:25.717Z,100.00
2022-09-15T05:13:53.145Z,100.00
2022-09-15T05:16:25.728Z,100.00
2022-09-15T05:18:54.258Z,100.00
2022-09-15T05:21:23.042Z,100.00
2022-09-15T05:23:52.043Z,100.00
2022-09-15T05:26:22.314Z,100.00
2022-09-15T05:28:49.488Z,100.00
2022-09-15T05:31:22.208Z,100.00
2022-09-15T05:33:50.008Z,100.00
2022-09-15T05:36:19.277Z,100.00
2022-09-15T05:38:46.436Z,100.00
2022-09-15T05:41:18.640Z,100.00
2022-09-15T05:43:47.031Z,100.00
2022-09-15T05:46:14.803Z,100.00
2022-09-15T05:48:42.271Z,100.00
2022-09-15T05:51:14.047Z,100.00
2022-09-15T05:53:42.224Z,100.00
2022-09-15T05:56:14.173Z,100.00
2022-09-15T05:58:43.788Z,100.00
2022-09-15T06:01:23.875Z,100.00
2022-09-15T06:03:51.879Z,100.00
2022-09-15T06:06:19.339Z,100.00
2022-09-15T06:08:51.925Z,100.00
2022-09-15T06:11:25.161Z,100.00
2022-09-15T06:13:52.847Z,100.00
2022-09-15T06:16:22.677Z,100.00
2022-09-15T06:18:52.243Z,99.61
2022-09-15T06:21:22.302Z,99.08
2022-09-15T06:23:57.034Z,98.53
2022-09-15T06:26:25.125Z,97.97
2022-09-15T06:28:57.308Z,97.79
2022-09-15T06:31:25.928Z,97.70
2022-09-15T06:33:55.841Z,97.21
2022-09-15T06:36:26.126Z,96.30
2022-09-15T06:38:54.144Z,95.67
2022-09-15T06:41:21.169Z,95.27
2022-09-15T06:43:49.315Z,94.19
2022-09-15T06:46:22.654Z,93.66
2022-09-15T06:48:51.303Z,93.60
2022-09-15T06:51:21.266Z,93.30
2022-09-15T06:53:49.163Z,92.65
2022-09-15T06:56:22.238Z,91.81
2022-09-15T06:58:49.546Z,90.60
2022-09-15T07:01:22.666Z,90.47
2022-09-15T07:03:50.375Z,89.64
2022-09-15T07:06:17.897Z,88.79
2022-09-15T07:08:46.627Z,87.94
2022-09-15T07:11:14.207Z,87.85
2022-09-15T07:13:42.336Z,87.54
2022-09-15T07:16:12.603Z,87.41
2022-09-15T07:18:43.064Z,87.07
2022-09-15T07:21:16.751Z,87.84
2022-09-15T07:23:44.472Z,85.72
2022-09-15T07:26:13.954Z,84.72
2022-09-15T07:28:42.375Z,82.46
2022-09-15T07:31:11.122Z,81.58
2022-09-15T07:33:38.349Z,81.05
2022-09-15T07:36:07.725Z,79.22
2022-09-15T07:38:38.760Z,78.69
2022-09-15T07:41:07.148Z,76.91
2022-09-15T07:43:34.387Z,74.66
2022-09-15T07:46:02.332Z,74.08
2022-09-15T07:48:29.768Z,74.52
2022-09-15T07:50:57.139Z,72.87
2022-09-15T07:53:24.348Z,72.49
2022-09-15T07:55:55.223Z,70.92
2022-09-15T07:58:22.783Z,70.68
2022-09-15T08:00:50.166Z,69.05
2022-09-15T08:03:17.364Z,68.95
2022-09-15T08:05:45.875Z,67.38
2022-09-15T08:08:13.275Z,66.71
2022-09-15T08:10:41.407Z,63.07
2022-09-15T08:13:08.908Z,64.97
2022-09-15T08:15:37.570Z,63.84
2022-09-15T08:18:05.826Z,61.40
2022-09-15T08:20:33.391Z,59.89
2022-09-15T08:23:01.213Z,59.24
2022-09-15T08:25:28.877Z,59.20
2022-09-15T08:27:56.437Z,58.73
2022-09-15T08:30:29.004Z,56.11
2022-09-15T08:32:56.699Z,57.79
2022-09-15T08:35:24.500Z,57.26
2022-09-15T08:37:54.142Z,55.16
2022-09-15T08:40:24.006Z,55.45
2022-09-15T08:42:59.379Z,55.20
2022-09-15T08:45:42.417Z,54.25
2022-09-15T08:48:19.035Z,54.66
2022-09-15T08:50:49.554Z,53.65
2022-09-15T08:53:28.058Z,53.41
2022-09-15T08:55:57.233Z,53.97
2022-09-15T08:58:26.709Z,53.19
2022-09-15T09:01:11.478Z,54.30
2022-09-15T09:03:57.918Z,53.98
2022-09-15T09:06:44.906Z,52.85
2022-09-15T09:09:20.007Z,52.88
2022-09-15T09:11:56.140Z,53.91
2022-09-15T09:14:49.647Z,54.19
2022-09-15T09:17:35.140Z,53.46
2022-09-15T09:20:24.355Z,52.72
2022-09-15T09:22:54.229Z,52.52
2022-09-15T09:25:27.684Z,52.53
2022-09-15T09:27:58.192Z,52.88
2022-09-15T09:30:27.949Z,51.76
2022-09-15T09:33:23.195Z,50.52
2022-09-15T09:35:53.005Z,49.75
2022-09-15T09:38:26.820Z,50.92
2022-09-15T09:40:56.603Z,50.74
2022-09-15T09:43:28.869Z,50.02
2022-09-15T09:45:56.517Z,50.69
2022-09-15T09:48:27.997Z,49.72
2022-09-15T09:50:56.167Z,50.33
2022-09-15T09:53:23.552Z,50.27
2022-09-15T09:55:50.866Z,49.33
2022-09-15T09:58:20.967Z,49.21
2022-09-15T10:00:48.972Z,48.60
2022-09-15T10:03:28.020Z,49.47
2022-09-15T10:06:19.538Z,49.45
2022-09-15T10:09:05.106Z,48.74
2022-09-15T10:11:41.362Z,48.82
2022-09-15T10:14:20.424Z,48.76
2022-09-15T10:17:13.819Z,47.36
2022-09-15T10:19:46.924Z,48.32
2022-09-15T10:22:32.083Z,50.11
2022-09-15T10:25:01.128Z,49.33
2022-09-15T10:27:29.826Z,49.37
2022-09-15T10:29:59.780Z,49.03
2022-09-15T10:32:30.265Z,48.74
2022-09-15T10:35:01.905Z,48.59
2022-09-15T10:37:43.877Z,48.22
2022-09-15T10:40:25.148Z,48.53
2022-09-15T10:42:54.119Z,48.24
2022-09-15T10:45:34.383Z,48.02
2022-09-15T10:48:17.656Z,46.28
2022-09-15T10:50:52.131Z,46.79
2022-09-15T10:53:28.169Z,47.17
2022-09-15T10:56:21.807Z,46.82
2022-09-15T10:59:00.847Z,47.42
2022-09-15T11:01:28.141Z,47.74
2022-09-15T11:04:29.513Z,46.88
2022-09-15T11:07:08.128Z,47.27
2022-09-15T11:09:51.629Z,47.36
2022-09-15T11:12:59.584Z,48.12
2022-09-15T11:15:38.660Z,48.08
2022-09-15T11:18:06.154Z,48.74
2022-09-15T11:21:06.138Z,48.45
2022-09-15T11:23:34.312Z,47.69
2022-09-15T11:26:07.532Z,48.32
2022-09-15T11:28:58.000Z,47.33
2022-09-15T11:31:29.762Z,47.93
2022-09-15T11:34:02.279Z,48.20
2022-09-15T11:36:32.473Z,48.27
2022-09-15T11:39:21.694Z,48.49
2022-09-15T11:41:56.481Z,49.30
2022-09-15T11:44:30.520Z,49.39
2022-09-15T11:47:16.681Z,49.72
2022-09-15T11:50:09.262Z,49.74
2022-09-15T11:52:57.808Z,49.46
2022-09-15T11:55:42.684Z,49.91
2022-09-15T11:58:24.830Z,49.72
2022-09-15T12:01:10.634Z,50.26
2022-09-15T12:03:48.424Z,49.83
2022-09-15T12:06:18.844Z,50.19
2022-09-15T12:09:00.906Z,50.65
2022-09-15T12:11:32.930Z,52.17
2022-09-15T12:14:00.267Z,56.29
2022-09-15T12:16:27.855Z,60.50
2022-09-15T12:19:37.295Z,63.53
2022-09-15T12:22:28.991Z,67.03
2022-09-15T12:25:01.138Z,71.42
2022-09-15T12:27:29.499Z,73.27
2022-09-15T12:29:59.918Z,70.51
2022-09-15T12:32:35.043Z,71.74
2022-09-15T12:35:06.459Z,70.26
2022-09-15T12:37:49.292Z,72.50
2022-09-15T12:40:39.237Z,76.45
2022-09-15T12:43:16.006Z,78.56
2022-09-15T12:45:52.535Z,79.47
2022-09-15T12:48:46.706Z,80.68
2022-09-15T12:51:22.847Z,82.96
2022-09-15T12:53:54.759Z,81.85
2022-09-15T12:56:29.984Z,82.00
2022-09-15T12:59:06.521Z,83.05
2022-09-15T13:01:43.570Z,85.45
2022-09-15T13:04:44.023Z,85.71
2022-09-15T13:07:19.906Z,85.73
2022-09-15T13:09:56.067Z,86.10
2022-09-15T13:12:26.593Z,86.93
2022-09-15T13:14:54.740Z,87.89
2022-09-15T13:17:25.989Z,88.26
2022-09-15T13:19:56.066Z,87.64
2022-09-15T13:22:27.188Z,89.33
2022-09-15T13:25:03.780Z,89.51
2022-09-15T13:27:55.183Z,90.98
2022-09-15T13:30:43.648Z,91.12
2022-09-15T13:40:09.646Z,97.01
2022-09-15T13:43:01.169Z,99.73
2022-09-15T13:45:50.645Z,96.88
2022-09-15T13:48:51.650Z,97.20
2022-09-15T13:51:29.611Z,95.87
2022-09-15T13:54:07.045Z,94.88
2022-09-15T13:56:38.528Z,95.06
2022-09-15T13:59:14.122Z,94.69
2022-09-15T14:01:42.569Z,95.40
2022-09-15T14:04:16.780Z,94.73
2022-09-15T14:06:46.137Z,95.39
2022-09-15T14:09:15.153Z,94.88
2022-09-15T14:11:42.871Z,95.13
2022-09-15T14:14:27.587Z,94.90
2022-09-15T14:16:59.522Z,95.25
2022-09-15T14:19:36.646Z,94.85
2022-09-15T14:22:29.001Z,94.78
2022-09-15T14:24:57.309Z,94.62
2022-09-15T14:27:29.737Z,94.07
2022-09-15T14:30:02.573Z,93.54
2022-09-15T14:32:31.657Z,93.46
2022-09-15T14:34:59.220Z,93.16
2022-09-15T14:37:31.660Z,93.18
2022-09-15T14:40:01.591Z,93.44
2022-09-15T14:42:31.092Z,93.96
2022-09-15T14:48:06.637Z,93.36
2022-09-15T14:50:33.994Z,93.51
2022-09-15T14:53:04.905Z,93.62
2022-09-15T14:55:53.973Z,93.61
2022-09-15T14:58:27.847Z,93.27
2022-09-15T15:01:13.939Z,92.99
2022-09-15T15:03:53.031Z,93.00
2022-09-15T15:06:36.310Z,92.79
2022-09-15T15:09:18.483Z,93.72
2022-09-15T15:11:45.919Z,93.55
2022-09-15T15:14:13.669Z,93.99
2022-09-15T15:16:52.384Z,94.41
2022-09-15T15:19:34.465Z,95.39
2022-09-15T15:22:13.678Z,95.09
2022-09-15T15:24:47.439Z,95.38
2022-09-15T15:27:24.276Z,98.21
2022-09-15T15:29:51.843Z,97.05
2022-09-15T15:32:22.814Z,96.83
2022-09-15T15:35:00.176Z,97.14
2022-09-15T15:37:28.649Z,95.87
2022-09-15T15:40:01.434Z,96.20
2022-09-15T15:42:29.223Z,96.74
2022-09-15T15:45:09.657Z,96.21
2022-09-15T15:47:37.133Z,96.51
2022-09-15T15:50:13.983Z,96.96
2022-09-15T15:52:42.400Z,97.36
2022-09-15T15:55:14.340Z,98.26
2022-09-15T15:57:45.919Z,97.39
2022-09-15T16:00:40.933Z,96.69
2022-09-15T16:03:11.478Z,97.83
2022-09-15T16:05:39.992Z,96.83
2022-09-15T16:08:31.308Z,96.82
2022-09-15T16:11:02.377Z,97.99
2022-09-15T16:13:30.097Z,98.96
2022-09-15T16:15:58.148Z,98.76
2022-09-15T16:18:25.413Z,97.88
2022-09-15T16:20:52.806Z,98.32
2022-09-15T16:23:22.768Z,99.10
2022-09-15T16:26:02.049Z,98.94
2022-09-15T16:28:29.315Z,99.50
2022-09-15T16:30:57.110Z,98.71
2022-09-15T16:33:25.007Z,99.31
2022-09-15T16:36:08.619Z,100.00
2022-09-15T16:38:36.122Z,100.00
2022-09-15T16:41:04.720Z,100.00
2022-09-15T16:43:31.668Z,100.00
2022-09-15T16:45:58.471Z,99.83
2022-09-15T16:48:25.540Z,99.87
2022-09-15T16:53:39.860Z,100.00
2022-09-15T16:56:10.000Z,100.00
2022-09-15T16:58:39.974Z,100.00
2022-09-15T17:01:07.974Z,100.00
2022-09-15T17:03:34.823Z,100.00
2022-09-15T17:06:02.180Z,100.00
2022-09-15T17:08:31.352Z,100.00
2022-09-15T17:11:05.516Z,100.00
2022-09-15T17:13:34.346Z,100.00
2022-09-15T17:16:02.129Z,100.00
2022-09-15T17:18:29.532Z,100.00
2022-09-15T17:20:56.792Z,100.00
2022-09-15T17:23:24.698Z,100.00
2022-09-15T17:25:53.357Z,100.00
2022-09-15T17:28:22.510Z,100.00
2022-09-15T17:30:51.963Z,100.00
2022-09-15T17:33:20.142Z,100.00
2022-09-15T17:35:52.565Z,100.00
2022-09-15T17:38:21.611Z,100.00
2022-09-15T17:40:49.824Z,100.00
2022-09-15T17:43:22.225Z,100.00
2022-09-15T17:45:50.039Z,100.00
2022-09-15T17:48:17.306Z,100.00
2022-09-15T17:50:45.381Z,100.00
2022-09-15T17:53:14.933Z,100.00
2022-09-15T17:55:42.089Z,100.00
2022-09-15T17:58:09.569Z,100.00
2022-09-15T18:00:37.808Z,100.00
2022-09-15T18:03:27.891Z,100.00
2022-09-15T18:05:56.577Z,100.00
2022-09-15T18:08:23.406Z,100.00
2022-09-15T18:10:50.790Z,100.00
2022-09-15T18:13:23.493Z,100.00
2022-09-15T18:15:50.660Z,100.00
2022-09-15T18:18:20.108Z,100.00
2022-09-15T18:20:48.121Z,100.00
2022-09-15T18:23:17.190Z,100.00
2022-09-15T18:25:44.793Z,100.00
2022-09-15T18:28:12.115Z,100.00
2022-09-15T18:30:40.954Z,100.00
2022-09-15T18:33:28.056Z,100.00
2022-09-15T18:35:58.907Z,100.00
2022-09-15T18:38:26.512Z,100.00
2022-09-15T18:40:55.904Z,100.00
2022-09-15T18:43:25.187Z,100.00
2022-09-15T18:45:54.775Z,100.00
2022-09-15T18:48:21.629Z,100.00
2022-09-15T18:50:48.496Z,100.00
2022-09-15T18:53:15.406Z,100.00
2022-09-15T18:55:42.625Z,100.00
2022-09-15T18:58:10.258Z,100.00
2022-09-15T19:00:37.563Z,100.00
2022-09-15T19:03:06.162Z,100.00
2022-09-15T19:05:33.401Z,100.00
2022-09-15T19:08:01.638Z,100.00
2022-09-15T19:10:29.256Z,100.00
2022-09-15T19:12:56.061Z,100.00
2022-09-15T19:15:24.162Z,100.00
2022-09-15T19:17:51.146Z,100.00
2022-09-15T19:20:18.872Z,100.00
2022-09-15T19:22:46.352Z,100.00
2022-09-15T19:25:13.708Z,100.00
2022-09-15T19:27:41.269Z,100.00
2022-09-15T19:30:12.582Z,100.00
2022-09-15T19:32:40.695Z,100.00
2022-09-15T19:35:08.910Z,100.00
2022-09-15T19:37:37.991Z,100.00
2022-09-15T19:40:09.027Z,100.00
2022-09-15T19:42:38.157Z,100.00
2022-09-15T19:45:06.140Z,100.00
2022-09-15T19:47:32.962Z,100.00
2022-09-15T19:50:00.041Z,100.00
2022-09-15T19:52:33.516Z,100.00
2022-09-15T19:55:00.451Z,100.00
2022-09-15T19:57:27.310Z,100.00
2022-09-15T19:59:54.722Z,100.00
2022-09-15T20:02:22.258Z,100.00
2022-09-15T20:04:50.390Z,100.00
2022-09-15T20:07:17.366Z,100.00
2022-09-15T20:09:44.792Z,100.00
2022-09-15T20:12:11.801Z,100.00
2022-09-15T20:14:38.753Z,100.00
2022-09-15T20:17:05.593Z,100.00
2022-09-15T20:19:32.687Z,100.00
2022-09-15T20:21:59.554Z,100.00
2022-09-15T20:24:26.408Z,100.00
2022-09-15T20:26:53.271Z,100.00
2022-09-15T20:29:20.520Z,100.00
2022-09-15T20:31:47.619Z,100.00
2022-09-15T20:34:14.459Z,100.00
2022-09-15T20:36:41.320Z,100.00
2022-09-15T20:39:13.038Z,100.00
2022-09-15T20:41:41.705Z,100.00
2022-09-15T20:44:11.687Z,100.00
2022-09-15T20:46:38.624Z,100.00
2022-09-15T20:49:06.062Z,100.00
2022-09-15T20:51:33.785Z,100.00
2022-09-15T20:54:02.105Z,100.00
2022-09-15T20:56:30.207Z,100.00
2022-09-15T20:58:58.965Z,100.00
2022-09-15T21:01:32.323Z,100.00
2022-09-15T21:03:59.312Z,100.00
2022-09-15T21:06:27.045Z,100.00
2022-09-15T21:08:55.624Z,100.00
2022-09-15T21:11:23.966Z,100.00
2022-09-15T21:13:50.919Z,100.00
2022-09-15T21:16:20.602Z,100.00
2022-09-15T21:18:48.680Z,100.00
2022-09-15T21:21:29.798Z,99.96
2022-09-15T21:24:03.800Z,99.34
2022-09-15T21:26:59.987Z,99.38
2022-09-15T21:29:27.829Z,100.00
2022-09-15T21:31:55.879Z,100.00
2022-09-15T21:34:23.246Z,100.00
2022-09-15T21:36:53.796Z,100.00
2022-09-15T21:39:20.825Z,100.00
2022-09-15T21:41:47.619Z,100.00
2022-09-15T21:44:14.499Z,100.00
2022-09-15T21:46:41.300Z,100.00
2022-09-15T21:49:08.552Z,100.00
2022-09-15T21:51:36.285Z,100.00
2022-09-15T21:54:03.128Z,100.00
2022-09-15T21:56:30.291Z,100.00
2022-09-15T21:58:57.588Z,100.00
2022-09-15T22:01:27.993Z,100.00
2022-09-15T22:03:59.061Z,100.00
2022-09-15T22:06:31.866Z,99.29
2022-09-15T22:09:22.088Z,99.86
2022-09-15T22:11:49.394Z,99.44
2022-09-15T22:14:16.382Z,99.79
2022-09-15T22:16:43.290Z,99.37
2022-09-15T22:19:11.156Z,99.32
2022-09-15T22:21:41.547Z,99.73
2022-09-15T22:24:10.788Z,99.72
2022-09-15T22:26:38.485Z,99.45
2022-09-15T22:29:06.413Z,99.16
2022-09-15T22:31:35.035Z,99.12
2022-09-15T22:34:02.279Z,98.74
2022-09-15T22:36:30.601Z,98.80
2022-09-15T22:39:05.224Z,98.62
2022-09-15T22:41:39.447Z,98.84
2022-09-15T22:44:07.480Z,99.52
2022-09-15T22:46:34.585Z,99.84
2022-09-15T22:49:01.925Z,99.82
2022-09-15T22:51:28.863Z,100.00
2022-09-15T22:53:57.337Z,100.00
2022-09-15T22:56:26.221Z,100.00
2022-09-15T22:58:54.393Z,97.31
2022-09-15T23:01:28.172Z,97.19
2022-09-15T23:04:00.271Z,96.04
2022-09-15T23:06:29.369Z,95.83
2022-09-15T23:08:58.423Z,95.98
2022-09-15T23:11:26.974Z,96.38
2022-09-15T23:13:54.104Z,96.96
2022-09-15T23:16:21.983Z,98.10
2022-09-15T23:18:50.103Z,98.23
2022-09-15T23:21:16.969Z,98.07
2022-09-15T23:23:45.311Z,98.48
2022-09-15T23:26:15.156Z,92.74
2022-09-15T23:28:42.224Z,92.45
2022-09-15T23:31:11.856Z,93.04
2022-09-15T23:33:39.862Z,93.23
2022-09-15T23:36:08.463Z,93.27
2022-09-15T23:38:36.769Z,93.22
2022-09-15T23:41:04.227Z,91.39
2022-09-15T23:43:33.116Z,88.85
2022-09-15T23:46:00.584Z,89.96
2022-09-15T23:48:27.874Z,89.18
2022-09-15T23:50:54.866Z,88.81
2022-09-15T23:53:21.702Z,88.44
2022-09-15T23:55:48.650Z,87.12
2022-09-15T23:58:15.785Z,87.08
